Groton New London Airport Groton (New London) US
ICAO: KGON
IATA: GON
Category: Medium
Scheduled Services: No

Elevation: 9 ft
TransAlt. 18000 ft.

Airport Communications:
PROVIDENCE APP/DEP:125.75
ATIS:127
CLNC DEL:119.85
CTAF:125.6
GND:121.65
ARNG OPS:126.2
BRIDGEPORT RDO:122.1
TWR:125.6

KGON Zoom In..

Runways:

(A) RW 05 length 5000 ft width 150 ft
ILS 111.30 / hdg 48

(B) RW 15 length 4000 ft width 100 ft
---- / hdg 149

(C) RW 23 length 5000 ft width 150 ft
---- / hdg 228

(D) RW 33 length 4000 ft width 100 ft
---- / hdg 329

Location; KGON
Day. 22 / Time. 00.56 Zulu
* Altimeter: 30.28
* Temperature: 11° c. 51.8°f.
* Wind from: 300° Speed 06 kn.
Dewpoint: -06° c.
Visibility: 10 Statute Miles.
Clouds: Clear (automated report).

KGON 220056Z 30006KT 10SM CLR 11/M06 A3028 RMK AO2 SLP253 T01061061


Wind From 300°
Speed 06 kn.

  YouTube Music Video
 
jpsmedia.com for Web Design  worldairports.se 2018   terms of use